createdAt,value
2019-03-16T00:00:32.464Z,98638.25
2019-03-16T00:03:01.893Z,98630.13
2019-03-16T00:05:31.333Z,98628.42
2019-03-16T00:08:00.765Z,98631.38
2019-03-16T00:10:30.206Z,98633.77
2019-03-16T00:12:59.633Z,98631.38
2019-03-16T00:15:29.348Z,98633.30
2019-03-16T00:17:58.784Z,98627.35
2019-03-16T00:20:28.214Z,98633.61
2019-03-16T00:22:57.650Z,98634.67
2019-03-16T00:25:27.091Z,98638.20
2019-03-16T00:27:56.522Z,98641.15
2019-03-16T00:30:25.960Z,98632.03
2019-03-16T00:32:55.388Z,98636.56
2019-03-16T00:35:24.830Z,98644.81
2019-03-16T00:37:54.257Z,98641.38
2019-03-16T00:40:23.700Z,98639.55
2019-03-16T00:42:53.206Z,98633.03
2019-03-16T00:45:22.643Z,98640.12
2019-03-16T00:47:52.068Z,98642.98
2019-03-16T00:50:21.513Z,98637.94
2019-03-16T00:52:50.950Z,98647.05
2019-03-16T00:55:20.390Z,98644.37
2019-03-16T00:57:49.826Z,98636.95
2019-03-16T01:00:19.337Z,98641.96
2019-03-16T01:02:48.771Z,98645.80
2019-03-16T01:05:18.214Z,98642.59
2019-03-16T01:07:47.645Z,98644.33
2019-03-16T01:10:17.088Z,98648.21
2019-03-16T01:12:46.520Z,98646.19
2019-03-16T01:15:16.026Z,98645.43
2019-03-16T01:17:45.534Z,98642.30
2019-03-16T01:20:15.252Z,98653.45
2019-03-16T01:22:44.686Z,98646.28
2019-03-16T01:25:14.370Z,98654.09
2019-03-16T01:27:43.805Z,98656.16
2019-03-16T01:30:16.218Z,98651.91
2019-03-16T01:32:45.646Z,98644.98
2019-03-16T01:35:15.259Z,98640.53
2019-03-16T01:37:44.689Z,98648.97
2019-03-16T01:40:14.213Z,98644.33
2019-03-16T01:42:43.642Z,98646.33
2019-03-16T01:45:13.157Z,98649.77
2019-03-16T01:47:42.585Z,98650.61
2019-03-16T01:50:12.962Z,98645.66
2019-03-16T01:52:42.395Z,98648.72
2019-03-16T01:55:11.832Z,98647.03
2019-03-16T01:57:41.262Z,98643.06
2019-03-16T02:00:17.135Z,98643.03
2019-03-16T02:02:54.898Z,98656.33
2019-03-16T02:05:17.731Z,98644.33
2019-03-16T02:07:47.161Z,98647.70
2019-03-16T02:10:16.603Z,98655.11
2019-03-16T02:12:46.042Z,98648.25
2019-03-16T02:15:15.550Z,98653.42
2019-03-16T02:17:44.979Z,98646.67
2019-03-16T02:20:15.866Z,98649.43
2019-03-16T02:22:45.303Z,98653.23
2019-03-16T02:25:14.739Z,98650.92
2019-03-16T02:27:44.166Z,98640.61
2019-03-16T02:30:14.383Z,98641.20
2019-03-16T02:32:43.818Z,98642.67
2019-03-16T02:35:13.259Z,98634.39
2019-03-16T02:37:42.688Z,98637.89
2019-03-16T02:40:12.508Z,98634.84
2019-03-16T02:42:41.941Z,98637.70
2019-03-16T02:45:11.710Z,98649.09
2019-03-16T02:47:41.141Z,98643.02
2019-03-16T02:50:12.332Z,98634.14
2019-03-16T02:52:41.762Z,98633.23
2019-03-16T02:55:11.284Z,98634.36
2019-03-16T02:57:40.722Z,98641.38
2019-03-16T03:00:14.052Z,98629.19
2019-03-16T03:02:43.499Z,98633.69
2019-03-16T03:05:12.996Z,98630.03
2019-03-16T03:07:42.512Z,98644.73
2019-03-16T03:10:14.775Z,98630.48
2019-03-16T03:12:44.168Z,98634.36
2019-03-16T03:15:15.438Z,98639.05
2019-03-16T03:17:44.823Z,98640.12
2019-03-16T03:20:14.340Z,98646.38
2019-03-16T03:22:43.778Z,98647.45
2019-03-16T03:25:13.215Z,98652.91
2019-03-16T03:27:42.647Z,98656.84
2019-03-16T03:30:13.749Z,98664.25
2019-03-16T03:32:43.172Z,98660.02
2019-03-16T03:35:12.632Z,98657.16
2019-03-16T03:37:42.122Z,98662.88
2019-03-16T03:40:12.995Z,98668.54
2019-03-16T03:42:42.425Z,98664.20
2019-03-16T03:45:13.567Z,98664.70
2019-03-16T03:47:43.041Z,98669.92
2019-03-16T03:50:15.021Z,98667.64
2019-03-16T03:52:44.474Z,98670.51
2019-03-16T03:55:15.127Z,98670.98
2019-03-16T03:57:44.560Z,98679.09
2019-03-16T04:00:18.524Z,98668.52
2019-03-16T04:02:48.055Z,98669.58
2019-03-16T04:05:17.466Z,98671.69
2019-03-16T04:07:46.914Z,98668.68
2019-03-16T04:10:16.490Z,98668.68
2019-03-16T04:12:45.935Z,98666.60
2019-03-16T04:15:15.529Z,98653.63
2019-03-16T04:17:44.968Z,98671.64
2019-03-16T04:20:15.304Z,98677.75
2019-03-16T04:22:44.763Z,98676.14
2019-03-16T04:25:14.193Z,98680.50
2019-03-16T04:27:43.707Z,98682.84
2019-03-16T04:30:13.706Z,98688.64
2019-03-16T04:32:43.214Z,98689.56
2019-03-16T04:35:12.720Z,98692.61
2019-03-16T04:37:42.169Z,98686.45
2019-03-16T04:40:12.372Z,98690.63
2019-03-16T04:42:41.814Z,98692.52
2019-03-16T04:45:14.274Z,98694.35
2019-03-16T04:47:43.707Z,98693.59
2019-03-16T04:50:13.895Z,98687.67
2019-03-16T04:52:43.336Z,98692.30
2019-03-16T04:55:12.771Z,98691.00
2019-03-16T04:57:42.219Z,98689.05
2019-03-16T05:00:15.634Z,98686.32
2019-03-16T05:02:45.069Z,98687.70
2019-03-16T05:05:14.562Z,98693.08
2019-03-16T05:07:44.010Z,98694.98
2019-03-16T05:10:13.605Z,98702.45
2019-03-16T05:12:43.050Z,98693.39
2019-03-16T05:15:12.484Z,98690.97
2019-03-16T05:17:41.925Z,98692.80
2019-03-16T05:20:12.397Z,98679.59
2019-03-16T05:22:41.834Z,98685.70
2019-03-16T05:25:12.514Z,98689.72
2019-03-16T05:27:41.954Z,98680.55
2019-03-16T05:30:14.970Z,98682.37
2019-03-16T05:32:44.420Z,98686.17
2019-03-16T05:35:13.857Z,98689.89
2019-03-16T05:37:43.327Z,98688.14
2019-03-16T05:40:12.719Z,98689.52
2019-03-16T05:42:42.155Z,98691.86
2019-03-16T05:45:11.859Z,98686.94
2019-03-16T05:47:41.305Z,98699.80
2019-03-16T05:50:15.604Z,98690.22
2019-03-16T05:52:45.051Z,98701.62
2019-03-16T05:55:14.485Z,98699.11
2019-03-16T05:57:43.932Z,98707.86
2019-03-16T06:00:16.936Z,98710.92
2019-03-16T06:02:46.374Z,98713.27
2019-03-16T06:05:15.812Z,98711.89
2019-03-16T06:07:45.251Z,98707.20
2019-03-16T06:10:14.686Z,98708.33
2019-03-16T06:12:46.653Z,98717.47
2019-03-16T06:15:15.285Z,98707.33
2019-03-16T06:17:44.724Z,98723.46
2019-03-16T06:20:15.300Z,98722.73
2019-03-16T06:22:44.736Z,98714.97
2019-03-16T06:25:14.203Z,98705.50
2019-03-16T06:27:43.608Z,98725.75
2019-03-16T06:30:15.360Z,98723.70
2019-03-16T06:32:44.785Z,98720.51
2019-03-16T06:35:24.403Z,98720.95
2019-03-16T06:37:45.389Z,98724.62
2019-03-16T06:40:14.893Z,98731.46
2019-03-16T06:42:44.407Z,98731.09
2019-03-16T06:45:14.185Z,98746.77
2019-03-16T06:47:43.624Z,98749.35
2019-03-16T06:50:14.966Z,98754.00
2019-03-16T06:52:44.397Z,98753.47
2019-03-16T06:55:13.907Z,98754.31
2019-03-16T06:57:43.351Z,98749.59
2019-03-16T07:00:17.857Z,98761.08
2019-03-16T07:02:47.288Z,98756.21
2019-03-16T07:05:19.852Z,98755.80
2019-03-16T07:07:47.954Z,98760.02
2019-03-16T07:10:17.392Z,98760.30
2019-03-16T07:12:46.827Z,98768.67
2019-03-16T07:15:17.204Z,98775.98
2019-03-16T07:17:47.472Z,98774.02
2019-03-16T07:20:17.581Z,98784.45
2019-03-16T07:22:47.013Z,98776.31
2019-03-16T07:25:16.458Z,98773.20
2019-03-16T07:27:45.885Z,98777.30
2019-03-16T07:30:15.769Z,98782.70
2019-03-16T07:32:45.202Z,98786.20
2019-03-16T07:35:14.926Z,98787.80
2019-03-16T07:37:44.360Z,98785.66
2019-03-16T07:40:14.837Z,98789.39
2019-03-16T07:42:44.272Z,98783.39
2019-03-16T07:45:14.466Z,98792.66
2019-03-16T07:47:43.881Z,98792.66
2019-03-16T07:50:14.529Z,98797.64
2019-03-16T07:52:43.961Z,98794.12
2019-03-16T07:55:13.479Z,98796.79
2019-03-16T07:57:42.926Z,98796.17
2019-03-16T08:00:13.604Z,98795.86
2019-03-16T08:02:43.040Z,98793.95
2019-03-16T08:05:18.701Z,98796.55
2019-03-16T08:07:43.714Z,98802.57
2019-03-16T08:10:13.751Z,98795.05
2019-03-16T08:12:43.189Z,98806.00
2019-03-16T08:15:12.795Z,98806.17
2019-03-16T08:17:42.225Z,98800.91
2019-03-16T08:20:12.405Z,98807.30
2019-03-16T08:22:41.843Z,98806.61
2019-03-16T08:25:11.557Z,98812.67
2019-03-16T08:27:53.408Z,98819.38
2019-03-16T08:30:12.685Z,98814.37
2019-03-16T08:32:42.117Z,98816.11
2019-03-16T08:35:11.554Z,98819.02
2019-03-16T08:37:40.993Z,98815.25
2019-03-16T08:40:12.237Z,98819.37
2019-03-16T08:42:41.679Z,98826.38
2019-03-16T08:45:11.657Z,98823.70
2019-03-16T08:47:41.091Z,98825.40
2019-03-16T08:50:11.979Z,98827.73
2019-03-16T08:52:41.403Z,98831.86
2019-03-16T08:55:11.384Z,98833.75
2019-03-16T08:57:40.822Z,98821.08
2019-03-16T09:00:14.813Z,98828.59
2019-03-16T09:02:44.251Z,98827.30
2019-03-16T09:05:13.686Z,98826.84
2019-03-16T09:07:43.118Z,98827.91
2019-03-16T09:10:12.694Z,98830.66
2019-03-16T09:12:53.967Z,98826.17
2019-03-16T09:15:15.401Z,98829.38
2019-03-16T09:17:44.832Z,98828.98
2019-03-16T09:20:14.414Z,98832.34
2019-03-16T09:22:43.844Z,98832.66
2019-03-16T09:25:13.290Z,98834.70
2019-03-16T09:27:42.720Z,98829.16
2019-03-16T09:30:16.549Z,98834.95
2019-03-16T09:32:45.995Z,98833.98
2019-03-16T09:35:15.657Z,98828.88
2019-03-16T09:37:45.105Z,98826.41
2019-03-16T09:40:14.597Z,98828.63
2019-03-16T09:42:44.049Z,98824.75
2019-03-16T09:45:14.429Z,98819.25
2019-03-16T09:47:43.868Z,98819.49
2019-03-16T09:50:13.374Z,98815.36
2019-03-16T09:52:42.827Z,98814.06
2019-03-16T09:55:13.176Z,98810.34
2019-03-16T09:57:42.706Z,98807.30
2019-03-16T10:00:16.771Z,98794.27
2019-03-16T10:02:46.227Z,98795.84
2019-03-16T10:05:15.732Z,98794.88
2019-03-16T10:07:45.170Z,98793.94
2019-03-16T10:10:15.650Z,98792.88
2019-03-16T10:12:45.141Z,98791.81
2019-03-16T10:15:15.311Z,98788.80
2019-03-16T10:17:44.794Z,98783.69
2019-03-16T10:20:15.256Z,98785.38
2019-03-16T10:22:44.715Z,98780.63
2019-03-16T10:25:14.386Z,98772.06
2019-03-16T10:27:43.807Z,98771.58
2019-03-16T10:30:16.331Z,98775.52
2019-03-16T10:32:45.834Z,98773.69
2019-03-16T10:35:15.264Z,98771.50
2019-03-16T10:37:44.730Z,98782.66
2019-03-16T10:40:15.185Z,98768.59
2019-03-16T10:42:44.917Z,98764.52
2019-03-16T10:45:14.344Z,98775.79
2019-03-16T10:47:43.946Z,98763.63
2019-03-16T10:50:14.695Z,98787.89
2019-03-16T10:52:44.215Z,98756.11
2019-03-16T10:55:14.278Z,98746.41
2019-03-16T10:57:44.110Z,98754.86
2019-03-16T11:00:18.442Z,98746.05
2019-03-16T11:02:48.416Z,98742.39
2019-03-16T11:05:19.932Z,98748.87
2019-03-16T11:07:49.884Z,98748.33
2019-03-16T11:10:19.376Z,98740.41
2019-03-16T11:12:48.972Z,98742.83
2019-03-16T11:15:18.420Z,98742.95
2019-03-16T11:17:47.890Z,98745.50
2019-03-16T11:20:19.332Z,98741.64
2019-03-16T11:22:48.764Z,98735.77
2019-03-16T11:25:18.205Z,98735.39
2019-03-16T11:27:47.642Z,98737.45
2019-03-16T11:30:18.377Z,98738.27
2019-03-16T11:32:47.824Z,98730.69
2019-03-16T11:35:17.254Z,98732.64
2019-03-16T11:37:46.706Z,98720.96
2019-03-16T11:40:19.773Z,98719.13
2019-03-16T11:42:49.221Z,98731.08
2019-03-16T11:45:18.654Z,98736.98
2019-03-16T11:47:48.100Z,98730.98
2019-03-16T11:50:17.825Z,98733.58
2019-03-16T11:52:47.276Z,98732.95
2019-03-16T11:55:16.964Z,98725.97
2019-03-16T11:57:46.403Z,98738.68
2019-03-16T12:00:16.278Z,98736.24
2019-03-16T12:02:45.753Z,98720.19
2019-03-16T12:05:15.181Z,98718.14
2019-03-16T12:07:44.633Z,98721.73
2019-03-16T12:10:15.804Z,98724.66
2019-03-16T12:12:45.299Z,98714.73
2019-03-16T12:15:15.460Z,98724.47
2019-03-16T12:17:44.919Z,98717.59
2019-03-16T12:20:18.081Z,98727.25
2019-03-16T12:22:47.655Z,98701.95
2019-03-16T12:25:17.084Z,98699.36
2019-03-16T12:27:46.528Z,98693.70
2019-03-16T12:30:16.919Z,98696.23
2019-03-16T12:32:46.378Z,98685.75
2019-03-16T12:35:15.826Z,98681.69
2019-03-16T12:37:45.290Z,98663.42
2019-03-16T12:40:15.932Z,98674.86
2019-03-16T12:42:45.389Z,98664.44
2019-03-16T12:45:20.776Z,98653.89
2019-03-16T12:47:50.477Z,98650.19
2019-03-16T12:50:19.910Z,98646.83
2019-03-16T12:52:49.351Z,98649.89
2019-03-16T12:55:18.781Z,98647.23
2019-03-16T12:57:48.515Z,98639.88
2019-03-16T13:00:21.246Z,98637.73
2019-03-16T13:02:50.690Z,98648.52
2019-03-16T13:05:20.120Z,98635.44
2019-03-16T13:07:49.564Z,98626.98
2019-03-16T13:10:20.201Z,98628.84
2019-03-16T13:12:49.721Z,98629.30
2019-03-16T13:15:19.223Z,98627.33
2019-03-16T13:17:48.689Z,98615.83
2019-03-16T13:20:18.582Z,98625.91
2019-03-16T13:22:48.000Z,98627.58
2019-03-16T13:25:17.444Z,98611.70
2019-03-16T13:27:46.935Z,98637.27
2019-03-16T13:30:17.943Z,98628.17
2019-03-16T13:32:47.352Z,98626.62
2019-03-16T13:35:16.879Z,98608.54
2019-03-16T13:37:46.323Z,98604.75
2019-03-16T13:40:18.891Z,98608.99
2019-03-16T13:42:48.393Z,98597.56
2019-03-16T13:45:17.844Z,98600.92
2019-03-16T13:47:47.278Z,98604.88
2019-03-16T13:50:19.893Z,98600.34
2019-03-16T13:52:49.596Z,98602.93
2019-03-16T13:55:19.114Z,98606.55
2019-03-16T13:57:48.551Z,98592.46
2019-03-16T14:00:21.169Z,98597.20
2019-03-16T14:02:50.605Z,98598.41
2019-03-16T14:05:20.045Z,98600.16
2019-03-16T14:07:49.483Z,98597.19
2019-03-16T14:10:30.242Z,98599.67
2019-03-16T14:12:59.675Z,98588.69
2019-03-16T14:15:29.120Z,98574.76
2019-03-16T14:17:58.657Z,98570.14
2019-03-16T14:20:28.063Z,98552.94
2019-03-16T14:22:57.775Z,98555.55
2019-03-16T14:25:27.212Z,98544.44
2019-03-16T14:27:56.647Z,98539.27
2019-03-16T14:30:40.489Z,98534.03
2019-03-16T14:32:57.571Z,98533.12
2019-03-16T14:35:27.017Z,98520.20
2019-03-16T14:37:56.449Z,98508.45
2019-03-16T14:40:26.266Z,98505.89
2019-03-16T14:42:55.784Z,98523.80
2019-03-16T14:45:25.507Z,98510.58
2019-03-16T14:47:54.953Z,98509.95
2019-03-16T14:50:26.544Z,98500.99
2019-03-16T14:52:55.977Z,98496.77
2019-03-16T14:55:25.441Z,98492.41
2019-03-16T14:57:54.893Z,98487.67
2019-03-16T15:00:37.228Z,98488.12
2019-03-16T15:02:55.555Z,98485.91
2019-03-16T15:05:25.009Z,98479.09
2019-03-16T15:07:54.456Z,98473.53
2019-03-16T15:10:23.934Z,98468.90
2019-03-16T15:12:53.358Z,98475.02
2019-03-16T15:15:22.872Z,98471.61
2019-03-16T15:17:52.305Z,98465.41
2019-03-16T15:20:21.748Z,98462.25
2019-03-16T15:22:53.511Z,98461.97
2019-03-16T15:25:22.358Z,98460.77
2019-03-16T15:27:51.823Z,98457.22
2019-03-16T15:30:22.505Z,98458.02
2019-03-16T15:32:51.946Z,98458.97
2019-03-16T15:35:21.386Z,98450.00
2019-03-16T15:37:50.821Z,98445.64
2019-03-16T15:40:20.263Z,98443.61
2019-03-16T15:42:49.689Z,98435.86
2019-03-16T15:45:21.648Z,98429.95
2019-03-16T15:47:51.082Z,98427.99
2019-03-16T15:50:20.526Z,98416.27
2019-03-16T15:52:49.970Z,98417.73
2019-03-16T15:55:19.478Z,98413.36
2019-03-16T15:57:48.920Z,98410.55
2019-03-16T16:00:19.742Z,98411.00
2019-03-16T16:02:49.172Z,98401.86
2019-03-16T16:05:18.624Z,98399.18
2019-03-16T16:07:48.059Z,98394.43
2019-03-16T16:10:20.705Z,98394.85
2019-03-16T16:12:50.153Z,98379.95
2019-03-16T16:15:19.659Z,98385.66
2019-03-16T16:17:49.087Z,98379.45
2019-03-16T16:20:21.242Z,98375.61
2019-03-16T16:22:50.675Z,98370.48
2019-03-16T16:25:20.123Z,98367.16
2019-03-16T16:27:49.548Z,98371.27
2019-03-16T16:30:20.796Z,98372.06
2019-03-16T16:32:50.230Z,98367.22
2019-03-16T16:35:19.743Z,98365.60
2019-03-16T16:37:49.174Z,98357.11
2019-03-16T16:40:20.502Z,98355.09
2019-03-16T16:42:50.172Z,98341.48
2019-03-16T16:45:19.745Z,98338.66
2019-03-16T16:47:49.182Z,98337.55
2019-03-16T16:50:26.337Z,98336.59
2019-03-16T16:52:55.767Z,98339.73
2019-03-16T16:55:25.218Z,98333.80
2019-03-16T16:57:54.649Z,98327.65
2019-03-16T17:00:26.703Z,98328.74
2019-03-16T17:02:56.136Z,98332.11
2019-03-16T17:05:25.579Z,98324.63
2019-03-16T17:07:55.014Z,98331.25
2019-03-16T17:10:24.446Z,98318.34
2019-03-16T17:12:53.883Z,98317.34
2019-03-16T17:15:24.634Z,98314.94
2019-03-16T17:17:54.088Z,98305.45
2019-03-16T17:20:23.585Z,98304.23
2019-03-16T17:22:53.021Z,98301.58
2019-03-16T17:25:22.452Z,98302.97
2019-03-16T17:27:54.225Z,98301.58
2019-03-16T17:30:31.242Z,98300.60
2019-03-16T17:33:00.681Z,98301.97
2019-03-16T17:35:30.115Z,98303.91
2019-03-16T17:37:59.556Z,98300.50
2019-03-16T17:40:28.984Z,98301.48
2019-03-16T17:42:58.433Z,98298.17
2019-03-16T17:45:27.865Z,98294.23
2019-03-16T17:47:57.377Z,98291.00
2019-03-16T17:50:26.822Z,98292.31
2019-03-16T17:52:56.254Z,98292.07
2019-03-16T17:55:25.691Z,98295.28
2019-03-16T17:57:55.188Z,98290.84
2019-03-16T18:00:24.704Z,98295.01
2019-03-16T18:02:54.148Z,98300.09
2019-03-16T18:05:23.816Z,98293.50
2019-03-16T18:07:53.327Z,98289.59
2019-03-16T18:10:22.760Z,98290.98
2019-03-16T18:12:52.206Z,98291.11
2019-03-16T18:15:22.207Z,98294.43
2019-03-16T18:17:51.638Z,98301.14
2019-03-16T18:20:21.309Z,98305.30
2019-03-16T18:22:50.757Z,98305.93
2019-03-16T18:25:20.189Z,98304.09
2019-03-16T18:27:49.632Z,98301.89
2019-03-16T18:30:21.736Z,98293.70
2019-03-16T18:32:51.180Z,98299.14
2019-03-16T18:35:20.617Z,98299.77
2019-03-16T18:37:50.069Z,98304.24
2019-03-16T18:40:19.482Z,98298.90
2019-03-16T18:42:48.916Z,98296.79
2019-03-16T18:45:30.630Z,98296.97
2019-03-16T18:48:00.064Z,98292.93
2019-03-16T18:50:29.490Z,98292.82
2019-03-16T18:52:58.928Z,98288.30
2019-03-16T18:55:28.352Z,98292.14
2019-03-16T18:57:57.792Z,98286.16
2019-03-16T19:00:27.225Z,98291.20
2019-03-16T19:02:56.730Z,98286.52
2019-03-16T19:05:26.155Z,98276.80
2019-03-16T19:07:55.596Z,98278.64
2019-03-16T19:10:25.027Z,98278.96
2019-03-16T19:12:54.468Z,98273.50
2019-03-16T19:15:23.895Z,98275.91
2019-03-16T19:17:59.149Z,98268.17
2019-03-16T19:20:24.495Z,98270.68
2019-03-16T19:22:53.951Z,98281.93
2019-03-16T19:25:23.733Z,98273.14
2019-03-16T19:27:53.180Z,98271.17
2019-03-16T19:30:22.604Z,98277.91
2019-03-16T19:32:52.038Z,98267.66
2019-03-16T19:35:21.463Z,98265.61
2019-03-16T19:37:50.901Z,98264.15
2019-03-16T19:40:22.136Z,98262.09
2019-03-16T19:42:51.577Z,98262.67
2019-03-16T19:45:21.020Z,98254.84
2019-03-16T19:47:50.533Z,98251.16
2019-03-16T19:50:19.957Z,98250.83
2019-03-16T19:52:49.401Z,98249.84
2019-03-16T19:55:18.822Z,98248.37
2019-03-16T19:57:48.253Z,98247.00
2019-03-16T20:00:18.626Z,98249.06
2019-03-16T20:02:51.487Z,98245.20
2019-03-16T20:05:19.284Z,98245.15
2019-03-16T20:07:48.709Z,98237.05
2019-03-16T20:10:22.012Z,98240.00
2019-03-16T20:12:53.055Z,98236.58
2019-03-16T20:15:22.658Z,98235.19
2019-03-16T20:17:52.157Z,98231.74
2019-03-16T20:20:21.591Z,98229.67
2019-03-16T20:22:51.014Z,98230.04
2019-03-16T20:25:20.444Z,98224.52
2019-03-16T20:27:49.867Z,98223.75
2019-03-16T20:30:26.301Z,98219.91
2019-03-16T20:33:02.614Z,98221.02
2019-03-16T20:35:21.600Z,98214.13
2019-03-16T20:37:51.023Z,98207.80
2019-03-16T20:40:20.465Z,98214.98
2019-03-16T20:42:49.889Z,98218.77
2019-03-16T20:45:19.404Z,98216.23
2019-03-16T20:47:49.027Z,98215.64
2019-03-16T20:50:19.672Z,98214.22
2019-03-16T20:52:49.164Z,98221.34
2019-03-16T20:55:18.603Z,98218.55
2019-03-16T20:57:48.032Z,98219.88
2019-03-16T21:00:18.979Z,98220.13
2019-03-16T21:02:48.409Z,98220.65
2019-03-16T21:05:17.846Z,98211.67
2019-03-16T21:07:47.260Z,98219.28
2019-03-16T21:10:16.758Z,98215.79
2019-03-16T21:12:46.178Z,98214.80
2019-03-16T21:15:19.523Z,98210.70
2019-03-16T21:17:48.950Z,98212.64
2019-03-16T21:20:20.490Z,98220.30
2019-03-16T21:22:49.913Z,98219.30
2019-03-16T21:25:19.417Z,98225.25
2019-03-16T21:27:48.839Z,98221.85
2019-03-16T21:30:21.622Z,98222.55
2019-03-16T21:32:51.049Z,98224.94
2019-03-16T21:35:20.484Z,98222.64
2019-03-16T21:37:49.916Z,98230.15
2019-03-16T21:40:19.346Z,98225.93
2019-03-16T21:42:48.773Z,98232.48
2019-03-16T21:45:18.491Z,98232.34
2019-03-16T21:47:59.553Z,98224.76
2019-03-16T21:50:19.071Z,98236.16
2019-03-16T21:52:48.496Z,98238.25
2019-03-16T21:55:17.929Z,98226.17
2019-03-16T21:57:47.355Z,98224.89
2019-03-16T22:00:18.001Z,98218.46
2019-03-16T22:02:47.423Z,98220.16
2019-03-16T22:05:16.867Z,98220.80
2019-03-16T22:07:46.288Z,98209.09
2019-03-16T22:10:17.588Z,98213.89
2019-03-16T22:12:46.997Z,98216.40
2019-03-16T22:15:17.268Z,98197.52
2019-03-16T22:17:47.029Z,98202.22
2019-03-16T22:20:21.449Z,98189.67
2019-03-16T22:22:50.870Z,98186.33
2019-03-16T22:25:20.315Z,98190.00
2019-03-16T22:27:51.698Z,98185.55
2019-03-16T22:30:20.960Z,98175.22
2019-03-16T22:32:50.383Z,98168.84
2019-03-16T22:35:19.813Z,98164.02
2019-03-16T22:37:49.230Z,98160.91
2019-03-16T22:40:18.678Z,98156.34
2019-03-16T22:42:48.097Z,98155.31
2019-03-16T22:45:17.601Z,98159.64
2019-03-16T22:47:47.028Z,98147.84
2019-03-16T22:50:20.503Z,98142.78
2019-03-16T22:52:49.928Z,98139.91
2019-03-16T22:55:19.370Z,98141.73
2019-03-16T22:57:48.798Z,98139.63
2019-03-16T23:00:37.142Z,98137.34
2019-03-16T23:03:06.155Z,98132.80
2019-03-16T23:05:37.381Z,98129.84
2019-03-16T23:08:06.802Z,98127.44
2019-03-16T23:10:36.241Z,98131.81
2019-03-16T23:13:05.673Z,98126.84
2019-03-16T23:15:35.114Z,98121.84
2019-03-16T23:18:04.549Z,98113.88
2019-03-16T23:20:33.981Z,98110.94
2019-03-16T23:23:03.409Z,98107.84
2019-03-16T23:25:32.854Z,98110.89
2019-03-16T23:28:02.260Z,98105.16
2019-03-16T23:30:31.698Z,98096.64
2019-03-16T23:33:01.122Z,98092.23
2019-03-16T23:35:30.558Z,98090.63
2019-03-16T23:37:59.977Z,98089.30
2019-03-16T23:40:29.419Z,98093.91
2019-03-16T23:42:58.838Z,98081.45
2019-03-16T23:45:28.273Z,98084.64
2019-03-16T23:47:57.700Z,98088.77
2019-03-16T23:50:27.134Z,98078.33
2019-03-16T23:52:56.567Z,98077.53
2019-03-16T23:55:25.996Z,98077.02
2019-03-16T23:57:56.502Z,98076.03
